sensor_id;sensor_type;location;lat;lon;timestamp;pressure;altitude;pressure_sealevel;temperature;humidity
73516;BME280;61763;51.416;5.442;2024-02-16T00:01:37;100889.97;;;9.33;100.00
73516;BME280;61763;51.416;5.442;2024-02-16T00:04:02;100894.38;;;9.36;100.00
73516;BME280;61763;51.416;5.442;2024-02-16T00:06:28;100878.19;;;9.36;100.00
73516;BME280;61763;51.416;5.442;2024-02-16T00:08:53;100884.13;;;9.44;100.00
73516;BME280;61763;51.416;5.442;2024-02-16T00:11:18;100885.84;;;9.45;100.00
73516;BME280;61763;51.416;5.442;2024-02-16T00:13:44;100885.72;;;9.48;100.00
73516;BME280;61763;51.416;5.442;2024-02-16T00:16:09;100881.88;;;9.54;100.00
73516;BME280;61763;51.416;5.442;2024-02-16T00:18:35;100877.31;;;9.56;100.00
73516;BME280;61763;51.416;5.442;2024-02-16T00:21:00;100881.56;;;9.61;100.00
73516;BME280;61763;51.416;5.442;2024-02-16T00:23:26;100870.34;;;9.71;100.00
73516;BME280;61763;51.416;5.442;2024-02-16T00:25:52;100875.44;;;9.77;100.00
73516;BME280;61763;51.416;5.442;2024-02-16T00:28:18;100864.59;;;9.78;100.00
73516;BME280;61763;51.416;5.442;2024-02-16T00:30:44;100873.75;;;9.74;100.00
73516;BME280;61763;51.416;5.442;2024-02-16T00:33:09;100873.25;;;9.66;100.00
73516;BME280;61763;51.416;5.442;2024-02-16T00:35:34;100876.41;;;9.55;100.00
73516;BME280;61763;51.416;5.442;2024-02-16T00:38:00;100873.34;;;9.44;100.00
73516;BME280;61763;51.416;5.442;2024-02-16T00:40:25;100880.16;;;9.32;100.00
73516;BME280;61763;51.416;5.442;2024-02-16T00:42:51;100884.22;;;9.22;100.00
73516;BME280;61763;51.416;5.442;2024-02-16T00:45:17;100873.03;;;9.10;100.00
73516;BME280;61763;51.416;5.442;2024-02-16T00:47:42;100869.00;;;9.00;100.00
73516;BME280;61763;51.416;5.442;2024-02-16T00:50:10;100861.19;;;8.94;100.00
73516;BME280;61763;51.416;5.442;2024-02-16T00:52:36;100862.19;;;8.91;100.00
73516;BME280;61763;51.416;5.442;2024-02-16T00:55:02;100865.94;;;8.87;100.00
73516;BME280;61763;51.416;5.442;2024-02-16T00:57:29;100863.47;;;8.83;100.00
73516;BME280;61763;51.416;5.442;2024-02-16T00:59:54;100853.69;;;8.80;100.00
73516;BME280;61763;51.416;5.442;2024-02-16T01:02:20;100869.09;;;8.76;100.00
73516;BME280;61763;51.416;5.442;2024-02-16T01:04:45;100866.56;;;8.73;100.00
73516;BME280;61763;51.416;5.442;2024-02-16T01:07:12;100869.38;;;8.70;100.00
73516;BME280;61763;51.416;5.442;2024-02-16T01:09:37;100869.56;;;8.66;100.00
73516;BME280;61763;51.416;5.442;2024-02-16T01:12:03;100867.03;;;8.61;100.00
73516;BME280;61763;51.416;5.442;2024-02-16T01:14:28;100861.88;;;8.56;100.00
73516;BME280;61763;51.416;5.442;2024-02-16T01:16:53;100862.50;;;8.63;100.00
73516;BME280;61763;51.416;5.442;2024-02-16T01:19:19;100854.44;;;8.63;100.00
73516;BME280;61763;51.416;5.442;2024-02-16T01:21:44;100859.09;;;8.58;100.00
73516;BME280;61763;51.416;5.442;2024-02-16T01:24:12;100861.72;;;8.59;100.00
73516;BME280;61763;51.416;5.442;2024-02-16T01:26:38;100856.53;;;8.55;100.00
73516;BME280;61763;51.416;5.442;2024-02-16T01:29:03;100856.75;;;8.50;100.00
73516;BME280;61763;51.416;5.442;2024-02-16T01:31:29;100855.13;;;8.46;100.00
73516;BME280;61763;51.416;5.442;2024-02-16T01:33:54;100848.00;;;8.45;100.00
73516;BME280;61763;51.416;5.442;2024-02-16T01:36:20;100844.78;;;8.57;100.00
73516;BME280;61763;51.416;5.442;2024-02-16T01:38:45;100835.06;;;8.96;100.00
73516;BME280;61763;51.416;5.442;2024-02-16T01:41:11;100840.53;;;8.94;100.00
73516;BME280;61763;51.416;5.442;2024-02-16T01:43:37;100832.72;;;9.09;100.00
73516;BME280;61763;51.416;5.442;2024-02-16T01:46:03;100830.22;;;9.25;100.00
73516;BME280;61763;51.416;5.442;2024-02-16T01:48:29;100833.38;;;9.14;100.00
73516;BME280;61763;51.416;5.442;2024-02-16T01:50:54;100835.47;;;9.07;100.00
73516;BME280;61763;51.416;5.442;2024-02-16T01:53:21;100830.38;;;9.01;100.00
73516;BME280;61763;51.416;5.442;2024-02-16T01:55:47;100831.38;;;8.99;100.00
73516;BME280;61763;51.416;5.442;2024-02-16T01:58:13;100835.97;;;8.97;100.00
73516;BME280;61763;51.416;5.442;2024-02-16T02:00:39;100840.59;;;8.93;100.00
73516;BME280;61763;51.416;5.442;2024-02-16T02:03:06;100837.81;;;8.94;100.00
73516;BME280;61763;51.416;5.442;2024-02-16T02:05:31;100846.91;;;8.92;100.00
73516;BME280;61763;51.416;5.442;2024-02-16T02:07:57;100836.28;;;8.89;100.00
73516;BME280;61763;51.416;5.442;2024-02-16T02:10:22;100834.13;;;8.97;100.00
73516;BME280;61763;51.416;5.442;2024-02-16T02:12:48;100828.47;;;9.03;100.00
73516;BME280;61763;51.416;5.442;2024-02-16T02:15:13;100832.09;;;9.02;100.00
73516;BME280;61763;51.416;5.442;2024-02-16T02:17:38;100833.84;;;9.03;100.00
73516;BME280;61763;51.416;5.442;2024-02-16T02:20:04;100826.66;;;9.04;100.00
73516;BME280;61763;51.416;5.442;2024-02-16T02:22:33;100824.78;;;9.06;100.00
73516;BME280;61763;51.416;5.442;2024-02-16T02:24:58;100820.72;;;9.16;100.00
73516;BME280;61763;51.416;5.442;2024-02-16T02:27:23;100818.75;;;9.20;100.00
73516;BME280;61763;51.416;5.442;2024-02-16T02:29:49;100818.41;;;9.27;100.00
73516;BME280;61763;51.416;5.442;2024-02-16T02:32:15;100815.97;;;9.42;100.00
73516;BME280;61763;51.416;5.442;2024-02-16T02:34:40;100813.19;;;9.43;100.00
73516;BME280;61763;51.416;5.442;2024-02-16T02:37:06;100818.59;;;9.43;100.00
73516;BME280;61763;51.416;5.442;2024-02-16T02:39:32;100813.66;;;9.53;100.00
73516;BME280;61763;51.416;5.442;2024-02-16T02:41:57;100813.59;;;9.55;100.00
73516;BME280;61763;51.416;5.442;2024-02-16T02:44:26;100804.72;;;9.53;100.00
73516;BME280;61763;51.416;5.442;2024-02-16T02:46:52;100804.09;;;9.46;100.00
73516;BME280;61763;51.416;5.442;2024-02-16T02:49:18;100799.16;;;9.37;100.00
73516;BME280;61763;51.416;5.442;2024-02-16T02:51:43;100803.78;;;9.33;100.00
73516;BME280;61763;51.416;5.442;2024-02-16T02:54:09;100806.91;;;9.24;100.00
73516;BME280;61763;51.416;5.442;2024-02-16T02:56:34;100809.22;;;9.12;100.00
73516;BME280;61763;51.416;5.442;2024-02-16T02:58:59;100798.88;;;9.03;100.00
73516;BME280;61763;51.416;5.442;2024-02-16T03:01:25;100801.75;;;8.99;100.00
73516;BME280;61763;51.416;5.442;2024-02-16T03:03:50;100797.59;;;8.91;100.00
73516;BME280;61763;51.416;5.442;2024-02-16T03:06:19;100787.75;;;8.90;100.00
73516;BME280;61763;51.416;5.442;2024-02-16T03:08:44;100783.13;;;8.94;100.00
73516;BME280;61763;51.416;5.442;2024-02-16T03:11:10;100784.75;;;8.98;100.00
73516;BME280;61763;51.416;5.442;2024-02-16T03:13:36;100787.09;;;9.06;100.00
73516;BME280;61763;51.416;5.442;2024-02-16T03:16:01;100783.25;;;9.11;100.00
73516;BME280;61763;51.416;5.442;2024-02-16T03:18:33;100795.28;;;9.23;100.00
73516;BME280;61763;51.416;5.442;2024-02-16T03:20:58;100786.69;;;9.34;100.00
73516;BME280;61763;51.416;5.442;2024-02-16T03:23:24;100795.31;;;9.42;100.00
73516;BME280;61763;51.416;5.442;2024-02-16T03:25:49;100786.47;;;9.39;100.00
73516;BME280;61763;51.416;5.442;2024-02-16T03:28:15;100783.06;;;9.35;100.00
73516;BME280;61763;51.416;5.442;2024-02-16T03:30:41;100784.09;;;9.33;100.00
73516;BME280;61763;51.416;5.442;2024-02-16T03:33:06;100781.31;;;9.34;100.00
73516;BME280;61763;51.416;5.442;2024-02-16T03:35:32;100785.75;;;9.35;100.00
73516;BME280;61763;51.416;5.442;2024-02-16T03:37:58;100781.25;;;9.36;100.00
73516;BME280;61763;51.416;5.442;2024-02-16T03:40:24;100787.22;;;9.42;100.00
73516;BME280;61763;51.416;5.442;2024-02-16T03:42:50;100789.03;;;9.42;100.00
73516;BME280;61763;51.416;5.442;2024-02-16T03:45:16;100794.34;;;9.43;100.00
73516;BME280;61763;51.416;5.442;2024-02-16T03:47:41;100791.44;;;9.48;100.00
73516;BME280;61763;51.416;5.442;2024-02-16T03:50:07;100795.25;;;9.44;100.00
73516;BME280;61763;51.416;5.442;2024-02-16T03:52:33;100792.75;;;9.58;100.00
73516;BME280;61763;51.416;5.442;2024-02-16T03:54:58;100787.34;;;9.58;100.00
73516;BME280;61763;51.416;5.442;2024-02-16T03:57:24;100784.63;;;9.60;100.00
73516;BME280;61763;51.416;5.442;2024-02-16T03:59:50;100782.50;;;9.67;100.00
73516;BME280;61763;51.416;5.442;2024-02-16T04:02:15;100784.88;;;9.73;100.00
73516;BME280;61763;51.416;5.442;2024-02-16T04:04:41;100778.56;;;9.74;100.00
73516;BME280;61763;51.416;5.442;2024-02-16T04:07:07;100788.66;;;9.69;100.00
73516;BME280;61763;51.416;5.442;2024-02-16T04:09:33;100786.94;;;9.68;100.00
73516;BME280;61763;51.416;5.442;2024-02-16T04:12:00;100777.09;;;9.67;100.00
73516;BME280;61763;51.416;5.442;2024-02-16T04:14:25;100784.88;;;9.54;100.00
73516;BME280;61763;51.416;5.442;2024-02-16T04:16:50;100779.88;;;9.46;100.00
73516;BME280;61763;51.416;5.442;2024-02-16T04:19:16;100784.69;;;9.39;100.00
73516;BME280;61763;51.416;5.442;2024-02-16T04:21:41;100790.47;;;9.30;100.00
73516;BME280;61763;51.416;5.442;2024-02-16T04:24:07;100797.75;;;9.28;100.00
73516;BME280;61763;51.416;5.442;2024-02-16T04:26:32;100793.84;;;9.35;100.00
73516;BME280;61763;51.416;5.442;2024-02-16T04:28:58;100792.88;;;9.36;100.00
73516;BME280;61763;51.416;5.442;2024-02-16T04:31:23;100795.38;;;9.41;100.00
73516;BME280;61763;51.416;5.442;2024-02-16T04:33:49;100793.84;;;9.35;100.00
73516;BME280;61763;51.416;5.442;2024-02-16T04:36:14;100798.16;;;9.39;100.00
73516;BME280;61763;51.416;5.442;2024-02-16T04:38:40;100801.34;;;9.47;100.00
73516;BME280;61763;51.416;5.442;2024-02-16T04:41:06;100802.09;;;9.51;100.00
73516;BME280;61763;51.416;5.442;2024-02-16T04:43:32;100802.59;;;9.59;100.00
73516;BME280;61763;51.416;5.442;2024-02-16T04:45:57;100805.06;;;9.83;100.00
73516;BME280;61763;51.416;5.442;2024-02-16T04:48:22;100801.56;;;10.00;100.00
73516;BME280;61763;51.416;5.442;2024-02-16T04:50:48;100797.63;;;10.07;100.00
73516;BME280;61763;51.416;5.442;2024-02-16T04:53:13;100795.25;;;10.18;100.00
73516;BME280;61763;51.416;5.442;2024-02-16T04:55:39;100798.78;;;10.21;100.00
73516;BME280;61763;51.416;5.442;2024-02-16T04:58:04;100798.25;;;10.12;100.00
73516;BME280;61763;51.416;5.442;2024-02-16T05:00:35;100808.09;;;10.13;100.00
73516;BME280;61763;51.416;5.442;2024-02-16T05:03:00;100797.78;;;10.22;100.00
73516;BME280;61763;51.416;5.442;2024-02-16T05:05:26;100801.16;;;10.27;100.00
73516;BME280;61763;51.416;5.442;2024-02-16T05:07:51;100800.91;;;10.31;100.00
73516;BME280;61763;51.416;5.442;2024-02-16T05:10:16;100792.88;;;10.49;100.00
73516;BME280;61763;51.416;5.442;2024-02-16T05:12:42;100795.91;;;10.43;100.00
73516;BME280;61763;51.416;5.442;2024-02-16T05:15:08;100800.59;;;10.57;100.00
73516;BME280;61763;51.416;5.442;2024-02-16T05:17:34;100789.53;;;10.61;100.00
73516;BME280;61763;51.416;5.442;2024-02-16T05:20:00;100798.38;;;10.65;100.00
73516;BME280;61763;51.416;5.442;2024-02-16T05:22:25;100790.44;;;10.79;100.00
73516;BME280;61763;51.416;5.442;2024-02-16T05:24:50;100795.19;;;10.92;100.00
73516;BME280;61763;51.416;5.442;2024-02-16T05:27:16;100792.97;;;11.00;100.00
73516;BME280;61763;51.416;5.442;2024-02-16T05:29:41;100796.53;;;11.00;100.00
73516;BME280;61763;51.416;5.442;2024-02-16T05:32:07;100796.13;;;11.08;100.00
73516;BME280;61763;51.416;5.442;2024-02-16T05:34:32;100790.16;;;11.19;100.00
73516;BME280;61763;51.416;5.442;2024-02-16T05:37:05;100790.78;;;11.24;100.00
73516;BME280;61763;51.416;5.442;2024-02-16T05:39:32;100785.59;;;11.37;100.00
73516;BME280;61763;51.416;5.442;2024-02-16T05:42:00;100786.72;;;11.49;100.00
73516;BME280;61763;51.416;5.442;2024-02-16T05:44:26;100801.19;;;11.48;100.00
73516;BME280;61763;51.416;5.442;2024-02-16T05:46:51;100790.69;;;11.59;100.00
73516;BME280;61763;51.416;5.442;2024-02-16T05:49:17;100797.50;;;11.66;100.00
73516;BME280;61763;51.416;5.442;2024-02-16T05:51:42;100796.41;;;11.69;100.00
73516;BME280;61763;51.416;5.442;2024-02-16T05:54:23;100793.31;;;11.77;100.00
73516;BME280;61763;51.416;5.442;2024-02-16T05:56:49;100797.75;;;11.78;100.00
73516;BME280;61763;51.416;5.442;2024-02-16T05:59:14;100807.59;;;11.79;100.00
73516;BME280;61763;51.416;5.442;2024-02-16T06:01:39;100810.38;;;11.61;100.00
73516;BME280;61763;51.416;5.442;2024-02-16T06:04:05;100809.88;;;11.70;100.00
73516;BME280;61763;51.416;5.442;2024-02-16T06:06:31;100809.78;;;11.88;100.00
73516;BME280;61763;51.416;5.442;2024-02-16T06:08:56;100811.53;;;11.89;100.00
73516;BME280;61763;51.416;5.442;2024-02-16T06:11:21;100820.03;;;11.99;100.00
73516;BME280;61763;51.416;5.442;2024-02-16T06:13:47;100827.81;;;12.05;100.00
73516;BME280;61763;51.416;5.442;2024-02-16T06:16:12;100826.69;;;12.09;100.00
73516;BME280;61763;51.416;5.442;2024-02-16T06:18:37;100835.84;;;12.06;100.00
73516;BME280;61763;51.416;5.442;2024-02-16T06:21:04;100821.44;;;12.06;100.00
73516;BME280;61763;51.416;5.442;2024-02-16T06:23:29;100824.38;;;12.01;100.00
73516;BME280;61763;51.416;5.442;2024-02-16T06:25:54;100825.78;;;12.08;100.00
73516;BME280;61763;51.416;5.442;2024-02-16T06:28:20;100833.13;;;12.06;100.00
73516;BME280;61763;51.416;5.442;2024-02-16T06:30:45;100844.97;;;12.04;100.00
73516;BME280;61763;51.416;5.442;2024-02-16T06:33:11;100835.84;;;12.06;100.00
73516;BME280;61763;51.416;5.442;2024-02-16T06:35:36;100846.09;;;12.00;100.00
73516;BME280;61763;51.416;5.442;2024-02-16T06:38:02;100851.25;;;11.88;100.00
73516;BME280;61763;51.416;5.442;2024-02-16T06:40:27;100851.06;;;11.91;100.00
73516;BME280;61763;51.416;5.442;2024-02-16T06:42:52;100857.81;;;12.00;100.00
73516;BME280;61763;51.416;5.442;2024-02-16T06:45:18;100860.94;;;11.92;100.00
73516;BME280;61763;51.416;5.442;2024-02-16T06:47:43;100865.22;;;11.97;100.00
73516;BME280;61763;51.416;5.442;2024-02-16T06:50:09;100863.31;;;11.99;100.00
73516;BME280;61763;51.416;5.442;2024-02-16T06:52:34;100865.94;;;12.00;100.00
73516;BME280;61763;51.416;5.442;2024-02-16T06:55:00;100864.81;;;12.04;100.00
73516;BME280;61763;51.416;5.442;2024-02-16T06:57:25;100868.56;;;12.02;100.00
73516;BME280;61763;51.416;5.442;2024-02-16T06:59:50;100873.66;;;11.90;100.00
73516;BME280;61763;51.416;5.442;2024-02-16T07:02:18;100875.66;;;11.87;100.00
73516;BME280;61763;51.416;5.442;2024-02-16T07:04:43;100875.03;;;11.82;100.00
73516;BME280;61763;51.416;5.442;2024-02-16T07:07:11;100877.59;;;11.67;100.00
73516;BME280;61763;51.416;5.442;2024-02-16T07:09:36;100885.59;;;11.86;100.00
73516;BME280;61763;51.416;5.442;2024-02-16T07:12:02;100889.09;;;11.88;100.00
73516;BME280;61763;51.416;5.442;2024-02-16T07:14:28;100883.94;;;11.84;100.00
73516;BME280;61763;51.416;5.442;2024-02-16T07:16:53;100892.84;;;11.86;100.00
73516;BME280;61763;51.416;5.442;2024-02-16T07:19:18;100893.53;;;11.89;100.00
73516;BME280;61763;51.416;5.442;2024-02-16T07:21:44;100897.84;;;11.94;100.00
73516;BME280;61763;51.416;5.442;2024-02-16T07:24:09;100904.50;;;12.04;100.00
73516;BME280;61763;51.416;5.442;2024-02-16T07:26:35;100908.78;;;12.08;100.00
73516;BME280;61763;51.416;5.442;2024-02-16T07:29:01;100920.03;;;12.00;100.00
73516;BME280;61763;51.416;5.442;2024-02-16T07:31:32;100913.72;;;12.00;100.00
73516;BME280;61763;51.416;5.442;2024-02-16T07:33:57;100918.00;;;12.04;100.00
73516;BME280;61763;51.416;5.442;2024-02-16T07:36:22;100917.06;;;12.05;100.00
73516;BME280;61763;51.416;5.442;2024-02-16T07:38:48;100914.53;;;12.02;100.00
73516;BME280;61763;51.416;5.442;2024-02-16T07:41:13;100919.97;;;12.18;100.00
73516;BME280;61763;51.416;5.442;2024-02-16T07:43:39;100921.28;;;12.26;100.00
73516;BME280;61763;51.416;5.442;2024-02-16T07:46:04;100931.94;;;12.30;100.00
73516;BME280;61763;51.416;5.442;2024-02-16T07:48:30;100926.06;;;12.21;100.00
73516;BME280;61763;51.416;5.442;2024-02-16T07:50:55;100925.13;;;12.22;100.00
73516;BME280;61763;51.416;5.442;2024-02-16T07:53:23;100925.13;;;12.22;100.00
73516;BME280;61763;51.416;5.442;2024-02-16T07:55:49;100934.00;;;12.24;100.00
73516;BME280;61763;51.416;5.442;2024-02-16T07:58:14;100931.22;;;12.26;100.00
73516;BME280;61763;51.416;5.442;2024-02-16T08:00:39;100930.53;;;12.22;100.00
73516;BME280;61763;51.416;5.442;2024-02-16T08:03:05;100929.50;;;12.25;100.00
73516;BME280;61763;51.416;5.442;2024-02-16T08:05:30;100929.41;;;12.26;100.00
73516;BME280;61763;51.416;5.442;2024-02-16T08:07:55;100929.66;;;12.38;100.00
73516;BME280;61763;51.416;5.442;2024-02-16T08:10:21;100933.53;;;12.34;100.00
73516;BME280;61763;51.416;5.442;2024-02-16T08:12:46;100950.16;;;12.26;100.00
73516;BME280;61763;51.416;5.442;2024-02-16T08:15:12;100948.69;;;12.36;100.00
73516;BME280;61763;51.416;5.442;2024-02-16T08:17:39;100954.19;;;12.35;100.00
73516;BME280;61763;51.416;5.442;2024-02-16T08:20:05;100953.25;;;12.36;100.00
73516;BME280;61763;51.416;5.442;2024-02-16T08:22:30;100964.84;;;12.38;100.00
73516;BME280;61763;51.416;5.442;2024-02-16T08:24:57;100968.19;;;12.43;100.00
73516;BME280;61763;51.416;5.442;2024-02-16T08:27:23;100983.88;;;12.52;100.00
73516;BME280;61763;51.416;5.442;2024-02-16T08:29:49;100981.47;;;12.64;100.00
73516;BME280;61763;51.416;5.442;2024-02-16T08:32:17;100984.94;;;12.66;100.00
73516;BME280;61763;51.416;5.442;2024-02-16T08:34:42;100992.28;;;12.64;100.00
73516;BME280;61763;51.416;5.442;2024-02-16T08:37:08;100999.00;;;12.72;100.00
73516;BME280;61763;51.416;5.442;2024-02-16T08:39:33;100998.13;;;12.72;100.00
73516;BME280;61763;51.416;5.442;2024-02-16T08:41:59;101009.22;;;12.67;100.00
73516;BME280;61763;51.416;5.442;2024-02-16T08:44:25;101010.34;;;12.79;100.00
73516;BME280;61763;51.416;5.442;2024-02-16T08:46:51;101011.94;;;12.83;100.00
73516;BME280;61763;51.416;5.442;2024-02-16T08:49:17;101017.78;;;12.91;100.00
73516;BME280;61763;51.416;5.442;2024-02-16T08:51:43;101020.78;;;12.87;100.00
73516;BME280;61763;51.416;5.442;2024-02-16T08:54:08;101021.38;;;12.92;100.00
73516;BME280;61763;51.416;5.442;2024-02-16T08:56:34;101024.53;;;12.84;100.00
73516;BME280;61763;51.416;5.442;2024-02-16T08:59:04;101024.25;;;12.89;100.00
73516;BME280;61763;51.416;5.442;2024-02-16T09:01:36;101024.75;;;12.95;100.00
73516;BME280;61763;51.416;5.442;2024-02-16T09:04:02;101016.31;;;13.02;100.00
73516;BME280;61763;51.416;5.442;2024-02-16T09:06:28;101018.22;;;13.00;100.00
73516;BME280;61763;51.416;5.442;2024-02-16T09:08:54;101029.75;;;13.03;100.00
73516;BME280;61763;51.416;5.442;2024-02-16T09:11:20;101034.28;;;13.03;100.00
73516;BME280;61763;51.416;5.442;2024-02-16T09:13:46;101031.34;;;13.07;100.00
73516;BME280;61763;51.416;5.442;2024-02-16T09:16:12;101042.66;;;13.30;100.00
73516;BME280;61763;51.416;5.442;2024-02-16T09:18:38;101036.44;;;13.28;100.00
73516;BME280;61763;51.416;5.442;2024-02-16T09:21:03;101042.56;;;13.31;100.00
73516;BME280;61763;51.416;5.442;2024-02-16T09:23:29;101046.50;;;13.42;100.00
73516;BME280;61763;51.416;5.442;2024-02-16T09:25:55;101051.66;;;13.46;100.00
73516;BME280;61763;51.416;5.442;2024-02-16T09:28:20;101050.63;;;13.49;100.00
73516;BME280;61763;51.416;5.442;2024-02-16T09:30:46;101060.31;;;13.53;100.00
73516;BME280;61763;51.416;5.442;2024-02-16T09:33:12;101061.75;;;13.59;100.00
73516;BME280;61763;51.416;5.442;2024-02-16T09:35:39;101044.06;;;13.53;100.00
73516;BME280;61763;51.416;5.442;2024-02-16T09:38:04;101066.97;;;13.47;100.00
73516;BME280;61763;51.416;5.442;2024-02-16T09:40:30;101068.63;;;13.50;100.00
73516;BME280;61763;51.416;5.442;2024-02-16T09:42:55;101083.25;;;13.47;100.00
73516;BME280;61763;51.416;5.442;2024-02-16T09:45:21;101080.72;;;13.44;100.00
73516;BME280;61763;51.416;5.442;2024-02-16T09:47:48;101092.78;;;13.39;100.00
73516;BME280;61763;51.416;5.442;2024-02-16T09:50:15;101089.97;;;13.24;100.00
73516;BME280;61763;51.416;5.442;2024-02-16T09:52:42;101106.75;;;13.15;100.00
73516;BME280;61763;51.416;5.442;2024-02-16T09:55:12;101098.72;;;12.97;100.00
73516;BME280;61763;51.416;5.442;2024-02-16T09:57:38;101105.25;;;12.93;100.00
73516;BME280;61763;51.416;5.442;2024-02-16T10:00:04;101114.41;;;12.91;100.00
73516;BME280;61763;51.416;5.442;2024-02-16T10:02:43;101117.03;;;12.92;100.00
73516;BME280;61763;51.416;5.442;2024-02-16T10:05:15;101119.84;;;12.91;100.00
73516;BME280;61763;51.416;5.442;2024-02-16T10:07:42;101127.00;;;12.92;100.00
73516;BME280;61763;51.416;5.442;2024-02-16T10:10:24;101134.41;;;12.72;100.00
73516;BME280;61763;51.416;5.442;2024-02-16T10:13:00;101129.25;;;12.68;100.00
73516;BME280;61763;51.416;5.442;2024-02-16T10:15:25;101133.34;;;12.75;100.00
73516;BME280;61763;51.416;5.442;2024-02-16T10:18:05;101133.34;;;12.75;100.00
73516;BME280;61763;51.416;5.442;2024-02-16T10:20:31;101134.75;;;12.82;100.00
73516;BME280;61763;51.416;5.442;2024-02-16T10:25:29;101144.22;;;12.91;100.00
73516;BME280;61763;51.416;5.442;2024-02-16T10:27:56;101150.84;;;12.85;100.00
73516;BME280;61763;51.416;5.442;2024-02-16T10:30:25;101159.84;;;12.86;100.00
73516;BME280;61763;51.416;5.442;2024-02-16T10:32:53;101156.19;;;13.03;100.00
73516;BME280;61763;51.416;5.442;2024-02-16T10:35:18;101165.13;;;13.05;100.00
73516;BME280;61763;51.416;5.442;2024-02-16T10:37:45;101167.13;;;13.01;100.00
73516;BME280;61763;51.416;5.442;2024-02-16T10:40:11;101164.41;;;13.01;100.00
73516;BME280;61763;51.416;5.442;2024-02-16T10:42:40;101184.09;;;13.05;100.00
73516;BME280;61763;51.416;5.442;2024-02-16T10:45:06;101184.28;;;13.02;100.00
73516;BME280;61763;51.416;5.442;2024-02-16T10:47:32;101194.03;;;12.88;100.00
73516;BME280;61763;51.416;5.442;2024-02-16T10:49:57;101190.69;;;12.83;100.00
73516;BME280;61763;51.416;5.442;2024-02-16T10:52:23;101196.94;;;12.68;100.00
73516;BME280;61763;51.416;5.442;2024-02-16T10:54:50;101202.38;;;12.68;100.00
73516;BME280;61763;51.416;5.442;2024-02-16T10:57:16;101204.69;;;12.58;100.00
73516;BME280;61763;51.416;5.442;2024-02-16T10:59:43;101209.69;;;12.48;100.00
73516;BME280;61763;51.416;5.442;2024-02-16T11:02:10;101213.28;;;12.49;100.00
73516;BME280;61763;51.416;5.442;2024-02-16T11:04:39;101209.06;;;12.60;100.00
73516;BME280;61763;51.416;5.442;2024-02-16T11:07:12;101209.31;;;12.56;100.00
73516;BME280;61763;51.416;5.442;2024-02-16T11:09:40;101216.78;;;12.51;100.00
73516;BME280;61763;51.416;5.442;2024-02-16T11:12:06;101221.78;;;12.58;100.00
73516;BME280;61763;51.416;5.442;2024-02-16T11:14:40;101219.88;;;12.60;100.00
73516;BME280;61763;51.416;5.442;2024-02-16T11:17:12;101223.53;;;12.59;100.00
73516;BME280;61763;51.416;5.442;2024-02-16T11:19:42;101231.91;;;12.55;100.00
73516;BME280;61763;51.416;5.442;2024-02-16T11:22:08;101223.78;;;12.55;100.00
73516;BME280;61763;51.416;5.442;2024-02-16T11:24:42;101223.22;;;12.48;100.00
73516;BME280;61763;51.416;5.442;2024-02-16T11:27:10;101227.38;;;12.55;100.00
73516;BME280;61763;51.416;5.442;2024-02-16T11:29:36;101232.53;;;12.60;100.00
73516;BME280;61763;51.416;5.442;2024-02-16T11:32:02;101235.00;;;12.65;100.00
73516;BME280;61763;51.416;5.442;2024-02-16T11:34:28;101237.47;;;12.69;100.00
73516;BME280;61763;51.416;5.442;2024-02-16T11:36:55;101249.84;;;12.57;100.00
73516;BME280;61763;51.416;5.442;2024-02-16T11:39:21;101234.94;;;12.66;100.00
73516;BME280;61763;51.416;5.442;2024-02-16T11:41:47;101246.22;;;12.57;100.00
73516;BME280;61763;51.416;5.442;2024-02-16T11:44:13;101254.34;;;12.57;100.00
73516;BME280;61763;51.416;5.442;2024-02-16T11:46:41;101260.41;;;12.62;100.00
73516;BME280;61763;51.416;5.442;2024-02-16T11:49:08;101260.09;;;12.51;100.00
73516;BME280;61763;51.416;5.442;2024-02-16T11:51:34;101270.94;;;12.51;100.00
73516;BME280;61763;51.416;5.442;2024-02-16T11:53:59;101267.09;;;12.37;100.00
73516;BME280;61763;51.416;5.442;2024-02-16T11:56:25;101279.28;;;12.29;100.00
73516;BME280;61763;51.416;5.442;2024-02-16T11:58:52;101280.22;;;12.27;100.00
73516;BME280;61763;51.416;5.442;2024-02-16T12:01:17;101274.25;;;12.21;100.00
73516;BME280;61763;51.416;5.442;2024-02-16T12:03:43;101286.97;;;12.19;100.00
73516;BME280;61763;51.416;5.442;2024-02-16T12:06:08;101282.69;;;12.15;100.00
73516;BME280;61763;51.416;5.442;2024-02-16T12:08:34;101290.06;;;12.11;100.00
73516;BME280;61763;51.416;5.442;2024-02-16T12:11:00;101286.66;;;12.07;100.00
73516;BME280;61763;51.416;5.442;2024-02-16T12:13:26;101306.28;;;12.11;100.00
73516;BME280;61763;51.416;5.442;2024-02-16T12:15:52;101299.94;;;12.12;100.00
73516;BME280;61763;51.416;5.442;2024-02-16T12:18:25;101307.31;;;12.08;100.00
73516;BME280;61763;51.416;5.442;2024-02-16T12:21:01;101305.72;;;12.04;100.00
73516;BME280;61763;51.416;5.442;2024-02-16T12:23:27;101314.19;;;11.97;100.00
73516;BME280;61763;51.416;5.442;2024-02-16T12:25:53;101321.44;;;11.96;100.00
73516;BME280;61763;51.416;5.442;2024-02-16T12:28:27;101322.50;;;11.92;100.00
73516;BME280;61763;51.416;5.442;2024-02-16T12:30:54;101326.31;;;11.88;100.00
73516;BME280;61763;51.416;5.442;2024-02-16T12:33:19;101334.34;;;11.89;100.00
73516;BME280;61763;51.416;5.442;2024-02-16T12:35:45;101325.63;;;12.03;100.00
73516;BME280;61763;51.416;5.442;2024-02-16T12:38:13;101332.91;;;12.01;100.00
73516;BME280;61763;51.416;5.442;2024-02-16T12:40:38;101333.81;;;12.02;100.00